Time;durP1;ratioP1;P1;durP2;ratioP2;P2;SDS_P1;SDS_P2;PMS_P1;PMS_P2;Temp;Humidity;BMP_temperature;BMP_pressure;BME280_temperature;BME280_humidity;BME280_pressure;Samples;Min_cycle;Max_cycle;Signal;HPM_P1;HPM_P2
2022/05/31 00:00:05;;;;;;;1.70;1.60;;;10.30;59.40;;;;;;944694;151;27386;-73
2022/05/31 00:02:31;;;;;;;3.23;1.90;;;10.30;59.50;;;;;;935828;151;27331;-73
2022/05/31 00:04:58;;;;;;;4.20;2.20;;;10.30;59.60;;;;;;931943;151;27459;-72
2022/05/31 00:07:25;;;;;;;2.30;2.10;;;10.20;59.70;;;;;;928677;154;27885;-73
2022/05/31 00:09:51;;;;;;;2.60;2.27;;;10.20;59.80;;;;;;929412;154;28601;-73
2022/05/31 00:12:18;;;;;;;2.20;2.00;;;10.20;60.00;;;;;;944919;151;27270;-73
2022/05/31 00:14:44;;;;;;;2.10;2.00;;;10.20;60.00;;;;;;928520;151;27473;-73
2022/05/31 00:17:11;;;;;;;3.57;2.00;;;10.10;60.10;;;;;;929159;154;27351;-73
2022/05/31 00:19:37;;;;;;;1.93;1.83;;;10.10;60.10;;;;;;929430;154;27337;-72
2022/05/31 00:22:10;;;;;;;2.13;1.93;;;10.10;60.30;;;;;;927352;153;27421;-73
2022/05/31 00:24:38;;;;;;;3.27;2.77;;;10.10;60.40;;;;;;944465;151;27349;-73
2022/05/31 00:27:04;;;;;;;2.40;1.70;;;10.10;60.40;;;;;;943173;149;27449;-73
2022/05/31 00:29:30;;;;;;;2.77;1.70;;;10.00;60.60;;;;;;944840;151;27348;-72
2022/05/31 00:31:56;;;;;;;3.10;1.63;;;10.00;60.70;;;;;;944735;151;28449;-73
2022/05/31 00:34:23;;;;;;;2.20;2.10;;;10.00;60.90;;;;;;944010;151;27641;-73
2022/05/31 00:36:50;;;;;;;2.07;1.80;;;9.90;60.80;;;;;;929611;154;27932;-72
2022/05/31 00:39:16;;;;;;;2.40;2.10;;;9.90;61.10;;;;;;927932;153;27335;-73
2022/05/31 00:41:43;;;;;;;2.17;1.70;;;9.90;61.20;;;;;;935550;151;27433;-73
2022/05/31 00:44:09;;;;;;;1.63;1.53;;;9.80;61.50;;;;;;944450;148;27345;-73
2022/05/31 00:46:39;;;;;;;2.27;2.00;;;9.80;61.50;;;;;;940356;149;27361;-72
2022/05/31 00:49:05;;;;;;;2.37;2.17;;;9.80;61.50;;;;;;940700;149;27310;-73
2022/05/31 00:51:37;;;;;;;2.17;2.07;;;9.80;61.60;;;;;;941094;149;27760;-73
2022/05/31 00:54:04;;;;;;;2.43;2.23;;;9.70;61.70;;;;;;940276;149;27454;-73
2022/05/31 00:56:31;;;;;;;2.30;2.03;;;9.70;61.80;;;;;;940651;149;27340;-73
2022/05/31 00:59:03;;;;;;;2.13;2.00;;;9.70;62.00;;;;;;941062;149;27338;-72
2022/05/31 01:01:29;;;;;;;1.63;1.53;;;9.60;61.90;;;;;;940674;149;27488;-73
2022/05/31 01:03:56;;;;;;;3.07;2.20;;;9.60;62.20;;;;;;941551;149;27353;-73
2022/05/31 01:06:23;;;;;;;2.37;2.20;;;9.60;62.30;;;;;;941647;149;27380;-73
2022/05/31 01:08:49;;;;;;;2.30;2.10;;;9.60;62.50;;;;;;941049;149;27372;-73
2022/05/31 01:11:16;;;;;;;2.07;1.83;;;9.50;62.60;;;;;;940351;149;28116;-72
2022/05/31 01:13:43;;;;;;;3.60;2.47;;;9.50;63.10;;;;;;940854;149;27298;-73
2022/05/31 01:16:09;;;;;;;2.77;2.57;;;9.50;62.90;;;;;;941401;149;27417;-74
2022/05/31 01:18:36;;;;;;;2.07;1.93;;;9.50;62.90;;;;;;941038;149;27455;-73
2022/05/31 01:21:02;;;;;;;2.53;2.17;;;9.50;63.10;;;;;;941444;149;27450;-73
2022/05/31 01:23:29;;;;;;;2.50;2.30;;;9.40;63.20;;;;;;941307;149;28552;-73
2022/05/31 01:26:01;;;;;;;2.80;2.53;;;9.40;63.30;;;;;;940448;150;27321;-73
2022/05/31 01:28:36;;;;;;;2.93;2.40;;;9.40;63.40;;;;;;939920;149;27437;-73
2022/05/31 01:31:03;;;;;;;2.30;2.10;;;9.40;63.40;;;;;;940375;149;27600;-73
2022/05/31 01:33:35;;;;;;;2.57;2.37;;;9.40;63.40;;;;;;939674;149;27379;-73
2022/05/31 01:36:02;;;;;;;4.20;2.30;;;9.40;63.50;;;;;;941061;150;27341;-73
2022/05/31 01:38:28;;;;;;;3.07;2.60;;;9.40;63.70;;;;;;940550;149;27458;-73
2022/05/31 01:41:00;;;;;;;3.20;2.90;;;9.40;63.90;;;;;;940671;149;27743;-73
2022/05/31 01:43:27;;;;;;;3.37;2.37;;;9.40;64.00;;;;;;940000;149;27330;-72
2022/05/31 01:45:56;;;;;;;2.87;2.27;;;9.40;64.00;;;;;;935123;149;27423;-72
2022/05/31 01:48:23;;;;;;;2.70;2.50;;;9.40;64.10;;;;;;943753;151;27360;-73
2022/05/31 01:50:50;;;;;;;2.70;2.50;;;9.40;64.20;;;;;;927512;154;27373;-73
2022/05/31 01:53:16;;;;;;;2.83;2.50;;;9.40;64.40;;;;;;944409;151;27790;-73
2022/05/31 01:55:44;;;;;;;2.83;2.63;;;9.40;64.60;;;;;;927720;154;27500;-72
2022/05/31 01:58:09;;;;;;;3.80;2.90;;;9.40;64.60;;;;;;928988;154;27286;-73
2022/05/31 02:00:36;;;;;;;3.70;2.70;;;9.40;64.70;;;;;;925818;154;27347;-73
2022/05/31 02:03:02;;;;;;;3.23;2.60;;;9.40;64.80;;;;;;929301;154;27369;-73
2022/05/31 02:05:29;;;;;;;3.57;2.30;;;9.40;64.80;;;;;;928851;151;27363;-72
2022/05/31 02:07:56;;;;;;;3.20;2.90;;;9.50;64.80;;;;;;928025;154;27415;-73
2022/05/31 02:10:23;;;;;;;2.67;2.47;;;9.40;64.80;;;;;;927399;154;27969;-73
2022/05/31 02:12:49;;;;;;;2.70;2.50;;;9.50;65.00;;;;;;945064;151;27749;-73
2022/05/31 02:15:15;;;;;;;3.27;2.77;;;9.50;65.80;;;;;;933679;151;27363;-73
2022/05/31 02:17:42;;;;;;;2.60;2.40;;;9.50;65.00;;;;;;929216;151;27367;-73
2022/05/31 02:20:09;;;;;;;3.10;2.90;;;9.50;65.10;;;;;;925705;155;27420;-73
2022/05/31 02:22:35;;;;;;;3.10;2.63;;;9.50;65.20;;;;;;927385;154;27424;-72
2022/05/31 02:25:02;;;;;;;2.73;2.53;;;9.50;65.30;;;;;;927016;152;27698;-73
2022/05/31 02:27:29;;;;;;;3.63;2.60;;;9.50;65.30;;;;;;928204;154;27329;-73
2022/05/31 02:29:55;;;;;;;2.80;2.43;;;9.50;65.40;;;;;;943330;151;27369;-73
2022/05/31 02:32:22;;;;;;;4.13;2.97;;;9.50;65.40;;;;;;943423;151;27313;-73
2022/05/31 02:34:48;;;;;;;2.67;2.47;;;9.50;65.50;;;;;;929635;154;27426;-73
2022/05/31 02:37:15;;;;;;;4.37;2.97;;;9.60;65.60;;;;;;933335;151;27652;-74
2022/05/31 02:39:41;;;;;;;3.47;3.17;;;9.60;65.60;;;;;;927878;154;27354;-74
2022/05/31 02:42:08;;;;;;;3.87;2.80;;;9.60;65.80;;;;;;929223;151;27495;-74
2022/05/31 02:44:34;;;;;;;4.23;3.10;;;9.60;65.80;;;;;;928173;152;27392;-75
2022/05/31 02:47:01;;;;;;;3.10;2.80;;;9.70;65.90;;;;;;927406;150;27431;-74
2022/05/31 02:49:28;;;;;;;3.87;3.13;;;9.70;66.00;;;;;;941938;149;27349;-74
2022/05/31 02:51:55;;;;;;;3.37;3.07;;;9.70;65.90;;;;;;941527;149;28002;-74
2022/05/31 02:54:21;;;;;;;4.07;2.80;;;9.80;66.20;;;;;;941320;149;27450;-74
2022/05/31 02:56:47;;;;;;;3.10;2.80;;;9.80;66.00;;;;;;940962;149;27348;-74
2022/05/31 02:59:14;;;;;;;3.20;3.00;;;9.90;66.00;;;;;;941932;149;27458;-74
2022/05/31 03:01:41;;;;;;;4.67;3.30;;;9.90;66.00;;;;;;941908;149;27395;-74
2022/05/31 03:04:07;;;;;;;5.27;4.00;;;9.90;66.00;;;;;;941495;149;27387;-74
2022/05/31 03:06:34;;;;;;;6.50;3.80;;;10.00;66.20;;;;;;940741;149;27365;-74
2022/05/31 03:09:00;;;;;;;5.67;3.73;;;10.00;66.10;;;;;;941311;149;27368;-74
2022/05/31 03:11:36;;;;;;;4.03;3.40;;;10.00;66.30;;;;;;941674;149;27468;-74
2022/05/31 03:14:05;;;;;;;3.53;3.20;;;10.10;66.40;;;;;;942315;149;27422;-74
2022/05/31 03:16:31;;;;;;;4.13;3.60;;;10.10;66.30;;;;;;942222;149;27382;-74
2022/05/31 03:19:02;;;;;;;3.60;3.13;;;10.20;66.70;;;;;;942325;150;27719;-74
2022/05/31 03:21:27;;;;;;;4.67;3.90;;;10.20;66.20;;;;;;941662;149;27438;-74
2022/05/31 03:23:54;;;;;;;4.97;3.90;;;10.20;66.20;;;;;;942726;149;27310;-74
2022/05/31 03:26:20;;;;;;;4.33;3.50;;;10.20;66.20;;;;;;942268;149;27433;-74
2022/05/31 03:28:47;;;;;;;4.20;3.90;;;10.30;66.40;;;;;;942736;149;27354;-74
2022/05/31 03:31:14;;;;;;;4.93;4.07;;;10.30;66.40;;;;;;942426;149;27346;-74
2022/05/31 03:33:40;;;;;;;5.97;3.40;;;10.30;66.50;;;;;;941897;149;27404;-74
2022/05/31 03:36:07;;;;;;;3.20;2.80;;;10.30;66.40;;;;;;942308;149;27322;-74
2022/05/31 03:38:33;;;;;;;3.17;2.63;;;10.30;66.20;;;;;;942842;149;27330;-74
2022/05/31 03:41:00;;;;;;;3.43;3.13;;;10.30;66.20;;;;;;942816;149;27447;-74
2022/05/31 03:43:27;;;;;;;3.53;2.87;;;10.30;66.20;;;;;;942616;149;27484;-74
2022/05/31 03:45:53;;;;;;;2.93;2.73;;;10.20;66.00;;;;;;941961;149;27365;-74
2022/05/31 03:48:20;;;;;;;3.00;2.70;;;10.20;66.00;;;;;;930711;151;27373;-74
2022/05/31 03:50:46;;;;;;;3.03;2.77;;;10.20;66.00;;;;;;939238;151;27428;-74
2022/05/31 03:53:13;;;;;;;3.40;3.10;;;10.10;65.90;;;;;;943918;151;27828;-74
2022/05/31 03:55:40;;;;;;;2.77;2.57;;;10.00;66.10;;;;;;928920;154;27501;-74
2022/05/31 03:58:06;;;;;;;3.20;2.70;;;10.00;66.20;;;;;;930045;151;28115;-74
2022/05/31 04:00:33;;;;;;;5.20;3.50;;;10.00;66.40;;;;;;928791;154;27348;-74
2022/05/31 04:02:59;;;;;;;4.77;3.57;;;9.90;66.50;;;;;;938167;151;27450;-74
2022/05/31 04:05:26;;;;;;;3.53;3.23;;;9.90;66.60;;;;;;937294;151;27347;-74
2022/05/31 04:07:52;;;;;;;4.70;3.50;;;9.90;66.70;;;;;;938628;151;27367;-74
2022/05/31 04:10:19;;;;;;;3.73;3.00;;;9.90;66.80;;;;;;947284;151;27355;-74
2022/05/31 04:12:46;;;;;;;3.20;3.00;;;9.80;67.00;;;;;;928952;154;27367;-74
2022/05/31 04:15:12;;;;;;;3.73;3.20;;;9.80;67.00;;;;;;944119;151;27434;-74
2022/05/31 04:17:39;;;;;;;4.07;3.60;;;9.80;68.10;;;;;;945092;151;27419;-74
2022/05/31 04:20:05;;;;;;;4.13;3.33;;;9.80;67.30;;;;;;944068;151;27457;-74
2022/05/31 04:22:32;;;;;;;4.93;4.00;;;9.80;67.40;;;;;;943922;151;27372;-74
2022/05/31 04:25:01;;;;;;;3.70;3.40;;;9.80;67.60;;;;;;943708;151;27461;-74
2022/05/31 04:27:25;;;;;;;4.23;3.83;;;9.90;67.90;;;;;;943646;151;27297;-74
2022/05/31 04:29:52;;;;;;;4.10;3.47;;;9.90;68.10;;;;;;944984;151;27337;-74
2022/05/31 04:32:18;;;;;;;4.70;4.13;;;9.90;68.30;;;;;;944619;151;27379;-74
2022/05/31 04:34:45;;;;;;;4.97;3.77;;;10.00;68.50;;;;;;944513;151;27397;-74
2022/05/31 04:37:12;;;;;;;4.97;4.33;;;10.10;68.80;;;;;;944804;151;27346;-74
2022/05/31 04:39:38;;;;;;;4.97;4.03;;;10.20;68.90;;;;;;943757;151;27282;-74
2022/05/31 04:42:05;;;;;;;5.03;3.87;;;10.30;69.00;;;;;;944552;151;27352;-74
2022/05/31 04:44:31;;;;;;;4.60;4.03;;;10.40;69.10;;;;;;945128;151;27893;-74
2022/05/31 04:46:58;;;;;;;4.67;4.20;;;10.50;69.20;;;;;;945038;151;27563;-74
2022/05/31 04:49:24;;;;;;;5.13;3.90;;;10.70;69.70;;;;;;944490;151;27442;-74
2022/05/31 04:51:51;;;;;;;4.37;3.90;;;10.90;70.30;;;;;;944496;151;27478;-74
2022/05/31 04:54:18;;;;;;;4.70;4.20;;;11.30;71.00;;;;;;944048;151;27329;-75
2022/05/31 04:56:44;;;;;;;3.93;3.63;;;11.70;71.60;;;;;;945058;151;27383;-74
2022/05/31 04:59:11;;;;;;;5.60;3.93;;;12.20;72.20;;;;;;944478;151;27438;-74
2022/05/31 05:01:38;;;;;;;4.00;3.43;;;12.80;72.60;;;;;;944995;151;27916;-75
2022/05/31 05:04:04;;;;;;;4.53;3.47;;;13.50;72.90;;;;;;944370;151;27369;-74
2022/05/31 05:06:31;;;;;;;5.37;3.33;;;14.30;72.70;;;;;;943365;151;27266;-75
2022/05/31 05:08:57;;;;;;;2.85;2.60;;;15.20;72.10;;;;;;944476;151;27332;-75
2022/05/31 05:11:24;;;;;;;3.58;3.10;;;16.10;71.30;;;;;;944634;151;27435;-75
2022/05/31 05:13:50;;;;;;;3.00;2.80;;;17.00;70.00;;;;;;944563;151;27457;-75
2022/05/31 05:16:17;;;;;;;2.58;2.37;;;18.00;68.30;;;;;;944530;151;28059;-75
2022/05/31 05:18:44;;;;;;;3.67;3.37;;;18.90;66.80;;;;;;943773;151;27418;-75
2022/05/31 05:21:10;;;;;;;4.40;3.20;;;19.80;65.20;;;;;;944537;151;27337;-75
2022/05/31 05:23:37;;;;;;;2.95;2.52;;;20.60;63.10;;;;;;944208;151;27406;-75
2022/05/31 05:26:03;;;;;;;2.55;2.33;;;21.40;61.50;;;;;;943851;151;27376;-75
2022/05/31 05:31:17;;;;;;;2.67;2.30;;;22.90;58.80;;;;;;944919;151;27326;-75
2022/05/31 05:33:44;;;;;;;2.30;2.10;;;23.70;57.60;;;;;;942671;151;27388;-75
2022/05/31 05:36:11;;;;;;;2.12;1.92;;;24.30;56.00;;;;;;944295;151;27333;-75
2022/05/31 05:38:37;;;;;;;1.85;1.75;;;24.90;54.90;;;;;;944692;151;27376;-75
2022/05/31 05:41:04;;;;;;;3.02;2.10;;;25.40;54.00;;;;;;944560;151;27695;-75
2022/05/31 05:43:30;;;;;;;3.08;2.35;;;25.90;52.90;;;;;;943908;151;28022;-75
2022/05/31 05:45:57;;;;;;;3.05;2.00;;;26.30;52.00;;;;;;944298;151;27338;-75
2022/05/31 05:48:24;;;;;;;2.50;1.87;;;26.70;51.10;;;;;;943608;149;27428;-75
2022/05/31 05:50:50;;;;;;;2.55;2.05;;;27.10;50.60;;;;;;943507;149;27310;-75
2022/05/31 05:53:17;;;;;;;1.80;1.70;;;27.50;50.00;;;;;;943462;149;27497;-75
2022/05/31 05:55:43;;;;;;;2.08;1.72;;;27.80;49.00;;;;;;942949;149;27426;-75
2022/05/31 05:58:10;;;;;;;1.77;1.62;;;28.10;47.90;;;;;;943205;149;27294;-75
2022/05/31 06:00:46;;;;;;;1.92;1.72;;;28.20;46.80;;;;;;942623;149;27420;-75
2022/05/31 06:03:15;;;;;;;2.62;1.35;;;28.20;46.00;;;;;;942457;149;27306;-75
2022/05/31 06:05:42;;;;;;;1.70;1.60;;;28.00;45.30;;;;;;941375;149;27350;-75
2022/05/31 06:08:08;;;;;;;1.50;1.40;;;27.80;45.20;;;;;;942150;149;27377;-76
2022/05/31 06:10:38;;;;;;;1.77;1.52;;;27.50;44.20;;;;;;943326;149;27354;-75
2022/05/31 06:13:13;;;;;;;1.45;1.35;;;27.10;44.20;;;;;;943352;149;27360;-75
2022/05/31 06:15:40;;;;;;;2.27;1.60;;;26.80;44.60;;;;;;944414;149;27314;-74
2022/05/31 06:18:06;;;;;;;2.92;1.80;;;26.50;44.70;;;;;;943420;149;27318;-74
2022/05/31 06:20:33;;;;;;;1.60;1.50;;;26.20;44.80;;;;;;942710;149;27799;-74
2022/05/31 06:23:00;;;;;;;2.22;1.82;;;26.00;44.80;;;;;;943558;149;27330;-74
2022/05/31 06:25:26;;;;;;;2.65;1.80;;;25.80;45.00;;;;;;943040;149;27302;-74
2022/05/31 06:27:53;;;;;;;1.62;1.52;;;25.60;45.30;;;;;;943448;149;27420;-74
2022/05/31 06:30:19;;;;;;;1.77;1.67;;;25.50;45.70;;;;;;942849;149;27410;-74
2022/05/31 06:32:46;;;;;;;1.98;1.87;;;25.60;46.60;;;;;;943291;149;27377;-74
2022/05/31 06:35:13;;;;;;;1.72;1.60;;;25.90;47.30;;;;;;943794;149;27736;-74
2022/05/31 06:37:39;;;;;;;1.45;1.35;;;26.40;47.90;;;;;;942747;149;27435;-74
2022/05/31 06:40:06;;;;;;;1.85;1.75;;;27.00;47.40;;;;;;943554;149;27411;-74
2022/05/31 06:42:32;;;;;;;1.98;1.75;;;27.50;46.00;;;;;;942871;149;28184;-75
2022/05/31 06:44:59;;;;;;;1.87;1.72;;;27.80;44.60;;;;;;943710;149;27291;-74
2022/05/31 06:47:26;;;;;;;1.52;1.42;;;27.90;43.60;;;;;;944305;149;27382;-75
2022/05/31 06:49:53;;;;;;;1.72;1.62;;;27.80;42.80;;;;;;943118;149;27338;-74
2022/05/31 06:57:49;;;;;;;1.60;1.47;;;27.00;43.20;;;;;;944057;149;27507;-75
2022/05/31 07:00:15;;;;;;;1.60;1.50;;;27.00;44.00;;;;;;943709;149;27417;-74
2022/05/31 07:02:42;;;;;;;1.75;1.65;;;27.10;44.20;;;;;;942387;149;27377;-74
2022/05/31 07:05:10;;;;;;;1.65;1.55;;;27.30;44.10;;;;;;942947;149;28550;-74
2022/05/31 07:07:35;;;;;;;1.82;1.45;;;27.40;43.80;;;;;;942730;148;27342;-74
2022/05/31 07:10:03;;;;;;;1.50;1.40;;;27.50;43.50;;;;;;943981;149;27396;-74
2022/05/31 07:12:28;;;;;;;1.40;1.30;;;27.60;42.80;;;;;;943389;149;27620;-74
2022/05/31 07:14:55;;;;;;;2.37;1.50;;;27.70;42.60;;;;;;944115;149;27385;-74
2022/05/31 07:17:21;;;;;;;1.12;1.12;;;27.70;43.00;;;;;;943663;149;27346;-74
2022/05/31 07:19:48;;;;;;;2.05;1.67;;;27.90;43.00;;;;;;943256;149;27440;-74
2022/05/31 07:22:15;;;;;;;1.42;1.32;;;28.00;42.70;;;;;;943689;149;27326;-74
2022/05/31 07:24:41;;;;;;;1.47;1.40;;;28.10;42.30;;;;;;943690;149;27368;-75
2022/05/31 07:27:08;;;;;;;1.92;1.57;;;28.20;42.00;;;;;;944229;149;27282;-75
2022/05/31 07:29:34;;;;;;;1.67;1.37;;;28.20;42.00;;;;;;942081;149;27378;-75
2022/05/31 07:32:01;;;;;;;3.47;1.15;;;28.40;42.30;;;;;;941925;149;27358;-75
2022/05/31 07:34:27;;;;;;;1.75;1.50;;;28.80;42.90;;;;;;944557;149;27428;-75
2022/05/31 07:36:54;;;;;;;1.70;1.07;;;29.30;43.50;;;;;;943732;149;27307;-75
2022/05/31 07:39:21;;;;;;;2.92;1.27;;;30.00;43.60;;;;;;943868;149;27423;-75
2022/05/31 07:41:48;;;;;;;3.12;1.05;;;30.80;43.20;;;;;;943629;149;27390;-75
2022/05/31 07:44:17;;;;;;;2.25;1.12;;;31.80;42.90;;;;;;943522;149;26285;-75
2022/05/31 07:46:43;;;;;;;1.30;1.20;;;32.70;42.00;;;;;;943482;149;26168;-75
2022/05/31 07:49:10;;;;;;;1.22;1.12;;;33.50;40.70;;;;;;943761;149;26289;-76
2022/05/31 07:51:36;;;;;;;1.22;1.12;;;34.20;39.40;;;;;;944006;149;27463;-75
2022/05/31 07:54:03;;;;;;;1.95;1.45;;;34.80;38.50;;;;;;944183;149;26284;-75
2022/05/31 07:56:29;;;;;;;1.40;1.30;;;35.20;37.40;;;;;;943944;149;26276;-75
2022/05/31 07:58:56;;;;;;;2.33;1.25;;;35.60;37.10;;;;;;944127;149;26245;-75
2022/05/31 08:01:25;;;;;;;1.57;1.47;;;35.90;37.20;;;;;;943926;149;26385;-75
2022/05/31 08:03:49;;;;;;;1.45;1.30;;;36.30;36.20;;;;;;943453;149;26228;-75
2022/05/31 08:06:16;;;;;;;1.52;0.98;;;36.50;35.00;;;;;;943204;149;26267;-76
2022/05/31 08:08:43;;;;;;;1.22;1.12;;;36.50;34.30;;;;;;943824;149;27350;-75
2022/05/31 08:11:15;;;;;;;1.27;1.17;;;36.50;33.70;;;;;;943647;149;26291;-75
2022/05/31 08:13:41;;;;;;;1.57;1.00;;;36.30;33.50;;;;;;943672;149;27294;-75
2022/05/31 08:16:08;;;;;;;1.37;1.02;;;36.10;33.30;;;;;;944530;149;27397;-75
2022/05/31 08:18:34;;;;;;;1.77;1.25;;;35.80;33.30;;;;;;942549;149;27464;-75
2022/05/31 08:21:01;;;;;;;2.10;1.10;;;35.70;33.60;;;;;;944253;149;27359;-75
2022/05/31 08:23:28;;;;;;;1.15;1.05;;;35.50;33.30;;;;;;942267;149;27318;-75
2022/05/31 08:25:54;;;;;;;2.15;1.12;;;35.30;33.20;;;;;;942553;149;27328;-75
2022/05/31 08:28:21;;;;;;;0.88;0.85;;;35.10;33.00;;;;;;942094;149;27404;-75
2022/05/31 08:30:47;;;;;;;1.00;0.90;;;34.80;32.90;;;;;;943330;149;27358;-75
2022/05/31 08:33:14;;;;;;;0.88;0.88;;;34.50;32.60;;;;;;943536;149;27362;-75
2022/05/31 08:35:41;;;;;;;0.93;0.88;;;34.30;33.00;;;;;;942517;149;27446;-75
2022/05/31 08:38:07;;;;;;;1.02;0.93;;;34.10;33.60;;;;;;943861;149;27439;-76
2022/05/31 08:40:34;;;;;;;1.92;1.20;;;34.00;33.90;;;;;;944148;149;27353;-74
2022/05/31 08:43:00;;;;;;;1.05;1.00;;;33.90;33.60;;;;;;942091;149;27356;-75
2022/05/31 08:45:36;;;;;;;2.75;0.98;;;34.00;33.80;;;;;;940964;149;27363;-75
2022/05/31 08:48:09;;;;;;;1.85;0.88;;;34.20;34.10;;;;;;940830;149;27389;-75
2022/05/31 08:53:29;;;;;;;0.82;0.82;;;34.70;33.80;;;;;;945421;151;27476;-75
2022/05/31 08:58:55;;;;;;;1.57;0.88;;;35.20;33.00;;;;;;945854;151;26269;-75
2022/05/31 09:01:19;;;;;;;0.93;0.90;;;35.30;32.30;;;;;;944526;151;27383;-75
2022/05/31 09:03:48;;;;;;;1.55;1.00;;;35.50;32.60;;;;;;944133;151;26370;-76
2022/05/31 09:06:21;;;;;;;1.15;0.93;;;35.70;32.50;;;;;;944022;151;26268;-75
2022/05/31 09:09:06;;;;;;;0.88;0.70;;;35.90;32.50;;;;;;944429;151;26366;-75
2022/05/31 09:11:38;;;;;;;1.42;1.10;;;36.20;32.30;;;;;;944395;151;26242;-75
2022/05/31 09:14:11;;;;;;;1.10;1.00;;;36.50;32.00;;;;;;944936;151;26256;-76
2022/05/31 09:16:59;;;;;;;1.10;0.60;;;36.70;31.60;;;;;;944570;151;26816;-76
2022/05/31 09:19:31;;;;;;;0.93;0.85;;;36.80;31.50;;;;;;944317;151;27342;-75
2022/05/31 09:22:00;;;;;;;1.67;1.10;;;36.70;30.60;;;;;;940767;151;27306;-75
2022/05/31 09:24:24;;;;;;;1.42;0.82;;;36.60;30.00;;;;;;944897;151;27419;-75
2022/05/31 09:26:57;;;;;;;0.98;0.95;;;36.20;29.90;;;;;;945203;151;27439;-75
2022/05/31 09:29:26;;;;;;;1.55;0.98;;;35.70;29.70;;;;;;944731;151;27434;-75
2022/05/31 09:32:07;;;;;;;0.70;0.70;;;35.20;29.60;;;;;;945208;151;27411;-75
2022/05/31 09:34:48;;;;;;;0.93;0.82;;;34.60;29.90;;;;;;942607;151;27369;-75
2022/05/31 09:37:45;;;;;;;1.75;1.20;;;34.10;30.60;;;;;;944136;151;27503;-75
2022/05/31 09:40:39;;;;;;;0.93;0.90;;;33.60;30.90;;;;;;944634;151;27370;-75
2022/05/31 09:43:14;;;;;;;0.78;0.78;;;33.30;31.40;;;;;;945640;151;27295;-75
2022/05/31 09:45:53;;;;;;;1.17;0.98;;;33.10;31.90;;;;;;945095;151;27439;-75
2022/05/31 09:48:20;;;;;;;1.75;1.07;;;32.90;31.80;;;;;;944198;151;27326;-75
2022/05/31 09:50:46;;;;;;;2.33;1.00;;;32.70;31.80;;;;;;944329;151;27326;-75
2022/05/31 09:58:46;;;;;;;1.57;1.20;;;32.10;32.60;;;;;;945898;151;27374;-75
2022/05/31 10:01:15;;;;;;;1.10;1.10;;;32.10;33.70;;;;;;940971;151;27427;-75
2022/05/31 10:03:48;;;;;;;1.20;0.95;;;32.20;33.90;;;;;;943148;151;27337;-75
2022/05/31 10:06:19;;;;;;;1.75;1.00;;;32.50;33.60;;;;;;944315;151;27450;-75
2022/05/31 10:08:52;;;;;;;1.95;1.40;;;32.70;33.30;;;;;;943959;151;27380;-75
2022/05/31 10:11:27;;;;;;;1.52;1.10;;;32.90;32.80;;;;;;945684;151;27334;-75
2022/05/31 10:13:57;;;;;;;0.90;0.90;;;32.90;32.50;;;;;;944915;151;27420;-75
2022/05/31 10:16:26;;;;;;;0.80;0.80;;;33.00;32.40;;;;;;945328;151;27376;-75
2022/05/31 10:18:53;;;;;;;1.10;0.82;;;33.10;31.60;;;;;;944825;151;27420;-75
2022/05/31 10:21:34;;;;;;;1.10;1.10;;;33.00;32.20;;;;;;945290;151;27386;-75
2022/05/31 10:24:01;;;;;;;0.75;0.75;;;33.10;32.00;;;;;;945479;151;27329;-76
2022/05/31 10:26:27;;;;;;;3.40;1.10;;;33.10;31.70;;;;;;944473;151;27353;-75
2022/05/31 10:28:54;;;;;;;2.25;1.00;;;33.00;31.50;;;;;;945521;151;27358;-76
2022/05/31 10:31:26;;;;;;;1.10;1.00;;;32.90;31.40;;;;;;943776;151;27318;-75
2022/05/31 10:33:55;;;;;;;0.93;0.88;;;32.70;31.20;;;;;;942969;151;27422;-75
2022/05/31 10:36:22;;;;;;;1.25;1.12;;;32.60;31.20;;;;;;945364;151;27356;-75
2022/05/31 10:38:48;;;;;;;0.95;0.95;;;32.40;31.40;;;;;;945333;151;27366;-75
2022/05/31 10:41:24;;;;;;;1.82;1.12;;;32.20;31.40;;;;;;945803;151;27335;-75
2022/05/31 10:43:51;;;;;;;1.30;1.20;;;32.00;31.40;;;;;;944530;151;27350;-75
2022/05/31 10:46:32;;;;;;;1.00;0.95;;;31.90;31.50;;;;;;943562;151;27445;-75
2022/05/31 10:49:01;;;;;;;0.93;0.90;;;31.80;31.70;;;;;;945375;151;27801;-75
2022/05/31 10:51:43;;;;;;;1.62;1.15;;;31.60;31.60;;;;;;942568;149;27347;-75
2022/05/31 10:54:09;;;;;;;1.30;1.20;;;31.60;31.80;;;;;;943417;149;27314;-74
2022/05/31 10:56:40;;;;;;;1.02;1.02;;;31.50;32.00;;;;;;943620;149;27303;-75
2022/05/31 10:59:05;;;;;;;1.00;0.88;;;31.40;31.80;;;;;;943332;149;27465;-75
2022/05/31 11:01:53;;;;;;;0.98;0.98;;;31.20;31.60;;;;;;944480;149;27448;-75
2022/05/31 11:04:28;;;;;;;1.15;1.05;;;31.00;31.70;;;;;;941626;149;27340;-75
2022/05/31 11:06:57;;;;;;;1.42;0.98;;;30.80;31.90;;;;;;942924;149;27334;-75
2022/05/31 11:12:35;;;;;;;0.90;0.90;;;30.50;32.40;;;;;;944379;149;28295;-75
2022/05/31 11:15:05;;;;;;;1.98;1.10;;;30.30;32.70;;;;;;943696;149;27435;-75
2022/05/31 11:17:46;;;;;;;1.22;1.12;;;30.20;32.60;;;;;;943975;149;27480;-75
2022/05/31 11:20:16;;;;;;;0.95;0.90;;;30.10;32.50;;;;;;944275;149;27293;-75
2022/05/31 11:23:09;;;;;;;0.85;0.85;;;29.90;33.00;;;;;;933656;149;27369;-75
2022/05/31 11:25:39;;;;;;;1.00;0.90;;;29.80;33.10;;;;;;943850;149;27882;-75
2022/05/31 11:28:15;;;;;;;1.02;1.02;;;29.70;33.10;;;;;;943983;149;27311;-75
2022/05/31 11:31:09;;;;;;;1.25;1.10;;;29.60;33.00;;;;;;942144;149;27952;-75
2022/05/31 11:34:05;;;;;;;2.47;1.32;;;29.50;33.20;;;;;;943509;149;27426;-75
2022/05/31 11:37:08;;;;;;;1.10;1.00;;;29.30;33.30;;;;;;942849;149;27428;-75
2022/05/31 11:39:47;;;;;;;1.30;1.20;;;29.30;33.60;;;;;;943246;149;27390;-75
2022/05/31 11:42:41;;;;;;;1.95;1.00;;;29.30;33.80;;;;;;944191;149;27346;-75
2022/05/31 11:45:07;;;;;;;1.27;1.17;;;29.20;33.90;;;;;;944323;149;27456;-75
2022/05/31 11:47:55;;;;;;;0.90;0.90;;;29.30;33.60;;;;;;942527;149;27303;-75
2022/05/31 11:50:47;;;;;;;2.30;1.35;;;29.20;33.70;;;;;;944396;149;27415;-75
2022/05/31 11:53:31;;;;;;;1.20;1.10;;;29.10;33.60;;;;;;903945;156;27415;-75
2022/05/31 11:56:10;;;;;;;1.22;1.22;;;29.00;33.60;;;;;;935415;149;27335;-74
2022/05/31 11:58:48;;;;;;;1.12;1.00;;;28.90;33.90;;;;;;943456;149;27358;-75
2022/05/31 12:01:32;;;;;;;1.90;0.98;;;28.80;34.00;;;;;;942518;149;27382;-75
2022/05/31 12:04:03;;;;;;;1.10;1.00;;;28.80;34.10;;;;;;943955;149;27408;-75
2022/05/31 12:06:34;;;;;;;1.25;1.15;;;28.70;34.30;;;;;;943117;149;27334;-74
2022/05/31 12:09:07;;;;;;;1.42;1.32;;;28.70;34.30;;;;;;943087;149;27381;-75
2022/05/31 12:11:36;;;;;;;1.47;1.02;;;28.60;34.50;;;;;;943625;149;27665;-75
2022/05/31 12:14:02;;;;;;;1.50;1.40;;;28.60;34.60;;;;;;943194;149;27299;-75
2022/05/31 12:16:29;;;;;;;1.35;1.10;;;28.60;34.20;;;;;;944319;149;27453;-75
2022/05/31 12:19:23;;;;;;;1.00;0.88;;;28.50;34.10;;;;;;943887;149;27644;-75
2022/05/31 12:21:55;;;;;;;1.72;1.25;;;28.50;34.30;;;;;;943445;149;27855;-75
2022/05/31 12:24:22;;;;;;;1.47;1.32;;;28.40;34.20;;;;;;928423;150;27375;-74
2022/05/31 12:26:49;;;;;;;0.70;0.70;;;28.40;34.10;;;;;;927362;150;27367;-75
2022/05/31 12:29:22;;;;;;;1.67;0.98;;;28.40;34.10;;;;;;927346;150;27437;-75
2022/05/31 12:31:48;;;;;;;2.35;1.12;;;28.40;33.90;;;;;;926238;150;27476;-75
2022/05/31 12:34:14;;;;;;;0.90;0.90;;;28.40;34.00;;;;;;938384;150;27296;-75
2022/05/31 12:37:03;;;;;;;0.98;0.98;;;28.30;33.70;;;;;;932122;150;27755;-75
2022/05/31 12:39:33;;;;;;;0.57;0.57;;;28.30;33.40;;;;;;938162;150;27453;-74
2022/05/31 12:41:56;;;;;;;1.20;1.10;;;28.30;33.30;;;;;;937868;150;28545;-75
2022/05/31 12:44:34;;;;;;;1.15;0.90;;;28.20;33.40;;;;;;943557;148;27298;-75
2022/05/31 12:47:14;;;;;;;0.98;0.98;;;28.20;33.20;;;;;;942090;149;28011;-75
2022/05/31 12:49:39;;;;;;;0.82;0.82;;;28.20;33.00;;;;;;941252;149;27384;-75
2022/05/31 12:54:56;;;;;;;1.10;0.80;;;28.20;32.90;;;;;;928593;154;27336;-74
2022/05/31 12:58:26;;;;;;;0.78;0.78;;;28.30;32.50;;;;;;930186;153;27423;-74
2022/05/31 12:59:57;;;;;;;0.68;0.68;;;28.20;32.20;;;;;;928486;154;27358;-75
2022/05/31 13:02:33;;;;;;;0.70;0.70;;;28.30;32.20;;;;;;945026;151;27392;-75
2022/05/31 13:05:06;;;;;;;0.57;0.57;;;28.30;32.10;;;;;;929081;151;27337;-74
2022/05/31 13:07:40;;;;;;;1.02;0.98;;;28.30;31.90;;;;;;930075;153;27421;-75
2022/05/31 13:10:25;;;;;;;1.12;0.98;;;28.30;31.40;;;;;;929394;153;27365;-76
2022/05/31 13:21:09;;;;;;;1.20;0.72;;;28.20;30.90;;;;;;930234;154;27395;-75
2022/05/31 13:23:37;;;;;;;0.80;0.80;;;28.20;30.20;;;;;;928615;154;27329;-75
2022/05/31 13:26:03;;;;;;;0.78;0.70;;;28.30;30.80;;;;;;935261;151;27492;-75
2022/05/31 13:28:41;;;;;;;0.70;0.62;;;28.30;30.70;;;;;;935323;151;27354;-75
2022/05/31 13:31:14;;;;;;;0.98;0.82;;;28.40;30.50;;;;;;937883;153;27301;-75
2022/05/31 13:33:40;;;;;;;1.10;0.85;;;28.40;30.30;;;;;;929359;151;27351;-75